Time;durP1;ratioP1;P1;durP2;ratioP2;P2;SDS_P1;SDS_P2;PMS_P1;PMS_P2;Temp;Humidity;BMP_temperature;BMP_pressure;BME280_temperature;BME280_humidity;BME280_pressure;Samples;Min_cycle;Max_cycle;Signal;HPM_P1;HPM_P2
2023/08/25 00:00:57;;;;;;;17.95;14.63;;;;;;;;;;5025044;28;20137;-62
2023/08/25 00:03:23;;;;;;;17.17;15.27;;;;;;;;;;5003907;28;20070;-57
2023/08/25 00:05:53;;;;;;;18.77;15.75;;;;;;;;;;5003531;28;20054;-58
2023/08/25 00:08:20;;;;;;;21.95;16.48;;;;;;;;;;5003682;28;20189;-58
2023/08/25 00:10:46;;;;;;;21.75;17.52;;;;;;;;;;5003562;28;20158;-58
2023/08/25 00:13:13;;;;;;;25.83;18.50;;;;;;;;;;5003179;28;20137;-58
2023/08/25 00:15:41;;;;;;;22.27;17.55;;;;;;;;;;5003447;28;20133;-59
2023/08/25 00:18:07;;;;;;;27.45;17.75;;;;;;;;;;5023181;28;20053;-59
2023/08/25 00:20:36;;;;;;;22.40;18.17;;;;;;;;;;5007739;28;20063;-57
2023/08/25 00:23:03;;;;;;;21.80;16.45;;;;;;;;;;5020787;28;20046;-57
2023/08/25 00:25:30;;;;;;;21.13;18.52;;;;;;;;;;5021951;28;20049;-58
2023/08/25 00:27:56;;;;;;;21.50;17.75;;;;;;;;;;5003545;28;20086;-59
2023/08/25 00:30:23;;;;;;;26.52;19.35;;;;;;;;;;5009148;28;20136;-58
2023/08/25 00:32:49;;;;;;;23.63;19.70;;;;;;;;;;5021736;28;20089;-57
2023/08/25 00:35:16;;;;;;;23.75;18.70;;;;;;;;;;5002417;28;20055;-57
2023/08/25 00:37:42;;;;;;;25.27;19.20;;;;;;;;;;5003555;28;20674;-58
2023/08/25 00:40:10;;;;;;;25.73;21.27;;;;;;;;;;5014415;28;20605;-58
2023/08/25 00:42:36;;;;;;;26.23;21.08;;;;;;;;;;5020887;28;20050;-58
2023/08/25 00:45:03;;;;;;;26.85;20.55;;;;;;;;;;5005921;28;20054;-58
2023/08/25 00:47:30;;;;;;;22.98;19.73;;;;;;;;;;5023350;28;20148;-57
2023/08/25 00:49:57;;;;;;;24.50;21.10;;;;;;;;;;5015679;28;20137;-58
2023/08/25 00:52:23;;;;;;;25.38;20.30;;;;;;;;;;5003328;28;20453;-56
2023/08/25 00:54:51;;;;;;;24.15;19.25;;;;;;;;;;5012933;28;20402;-58
2023/08/25 00:57:18;;;;;;;21.23;17.30;;;;;;;;;;5031776;28;20066;-58
2023/08/25 00:59:45;;;;;;;22.73;18.55;;;;;;;;;;5018809;28;20496;-59
2023/08/25 01:02:12;;;;;;;24.23;19.05;;;;;;;;;;5010233;28;20051;-58
2023/08/25 01:04:39;;;;;;;24.15;17.75;;;;;;;;;;5026271;28;20548;-57
2023/08/25 01:07:05;;;;;;;20.58;17.45;;;;;;;;;;5002740;28;20436;-57
2023/08/25 01:09:32;;;;;;;28.17;18.45;;;;;;;;;;5003055;28;20050;-58
2023/08/25 01:12:08;;;;;;;23.50;18.17;;;;;;;;;;5001874;28;20058;-56
2023/08/25 01:14:41;;;;;;;22.23;18.45;;;;;;;;;;5018031;28;20058;-59
2023/08/25 01:17:29;;;;;;;22.52;18.10;;;;;;;;;;5034337;28;20054;-58
2023/08/25 01:19:56;;;;;;;23.52;19.50;;;;;;;;;;5004948;28;20166;-57
2023/08/25 01:22:43;;;;;;;26.02;20.25;;;;;;;;;;5005927;28;20074;-58
2023/08/25 01:25:26;;;;;;;25.08;20.13;;;;;;;;;;5016187;28;20103;-59
2023/08/25 01:27:54;;;;;;;28.25;21.25;;;;;;;;;;5024797;28;20082;-58
2023/08/25 01:30:22;;;;;;;26.77;21.27;;;;;;;;;;5015584;28;20061;-59
2023/08/25 01:32:53;;;;;;;28.20;21.75;;;;;;;;;;5025729;28;20058;-59
2023/08/25 01:35:26;;;;;;;29.88;21.23;;;;;;;;;;5024775;28;20575;-58
2023/08/25 01:38:04;;;;;;;25.98;21.50;;;;;;;;;;5024537;28;20543;-59
2023/08/25 01:40:34;;;;;;;23.90;20.88;;;;;;;;;;5033556;28;20060;-58
2023/08/25 01:43:02;;;;;;;25.58;21.90;;;;;;;;;;5006426;28;20572;-58
2023/08/25 01:45:30;;;;;;;25.30;20.83;;;;;;;;;;5005833;28;20586;-59
2023/08/25 01:47:56;;;;;;;26.83;22.85;;;;;;;;;;5010360;28;20560;-60
2023/08/25 01:50:23;;;;;;;26.45;22.02;;;;;;;;;;5033915;28;20718;-59
2023/08/25 01:52:49;;;;;;;26.35;22.38;;;;;;;;;;5045123;28;20057;-59
2023/08/25 01:55:16;;;;;;;26.95;22.95;;;;;;;;;;5044113;28;20508;-59
2023/08/25 01:57:42;;;;;;;31.88;23.58;;;;;;;;;;5044639;28;20109;-59
2023/08/25 02:00:09;;;;;;;30.50;22.73;;;;;;;;;;5025414;28;20582;-59
2023/08/25 02:02:36;;;;;;;27.05;22.48;;;;;;;;;;5005286;28;20112;-55
2023/08/25 02:05:02;;;;;;;32.20;24.00;;;;;;;;;;5017291;28;20523;-60
2023/08/25 02:07:29;;;;;;;34.03;25.80;;;;;;;;;;5021041;28;20502;-58
2023/08/25 02:09:55;;;;;;;34.67;27.27;;;;;;;;;;5008265;28;20622;-58
2023/08/25 02:12:21;;;;;;;38.10;28.30;;;;;;;;;;5020075;28;20605;-59
2023/08/25 02:14:48;;;;;;;36.30;28.83;;;;;;;;;;5019444;28;20049;-58
2023/08/25 02:17:14;;;;;;;42.20;29.92;;;;;;;;;;5035876;28;20133;-59
2023/08/25 02:19:41;;;;;;;42.42;29.88;;;;;;;;;;5018697;28;20556;-59
2023/08/25 02:22:07;;;;;;;43.45;31.10;;;;;;;;;;5005348;28;20066;-59
2023/08/25 02:24:34;;;;;;;58.92;33.00;;;;;;;;;;5006295;28;20057;-58
2023/08/25 02:27:00;;;;;;;51.35;32.55;;;;;;;;;;5011047;28;20406;-56
2023/08/25 02:29:26;;;;;;;53.05;32.97;;;;;;;;;;5024378;28;20451;-59
2023/08/25 02:31:53;;;;;;;44.05;32.45;;;;;;;;;;5027281;28;20670;-59
2023/08/25 02:34:19;;;;;;;47.47;34.70;;;;;;;;;;5024496;28;20495;-58
2023/08/25 02:36:46;;;;;;;48.10;33.00;;;;;;;;;;5024406;28;20053;-58
2023/08/25 02:39:12;;;;;;;51.47;34.97;;;;;;;;;;5022829;28;20085;-57
2023/08/25 02:41:38;;;;;;;53.90;33.72;;;;;;;;;;5025274;28;20061;-59
2023/08/25 02:44:05;;;;;;;47.83;33.85;;;;;;;;;;5017009;28;20125;-57
2023/08/25 02:46:31;;;;;;;49.80;32.20;;;;;;;;;;5041974;28;20053;-58
2023/08/25 02:48:58;;;;;;;54.97;33.80;;;;;;;;;;5044856;28;20058;-58
2023/08/25 02:51:25;;;;;;;52.60;35.28;;;;;;;;;;5040657;28;20590;-57
2023/08/25 02:53:51;;;;;;;53.22;34.67;;;;;;;;;;5042796;28;20733;-58
2023/08/25 02:56:17;;;;;;;53.00;34.10;;;;;;;;;;5023355;28;20153;-59
2023/08/25 02:58:44;;;;;;;53.88;36.17;;;;;;;;;;5019551;28;20513;-58
2023/08/25 03:01:11;;;;;;;53.30;34.50;;;;;;;;;;5004245;28;20046;-59
2023/08/25 03:03:38;;;;;;;47.78;32.58;;;;;;;;;;5004470;28;20077;-59
2023/08/25 03:06:05;;;;;;;50.67;34.08;;;;;;;;;;5021957;28;20282;-57
2023/08/25 03:08:31;;;;;;;50.05;33.17;;;;;;;;;;5012611;28;20572;-59
2023/08/25 03:11:01;;;;;;;54.53;34.55;;;;;;;;;;5003686;28;20118;-59
2023/08/25 03:13:27;;;;;;;52.55;34.33;;;;;;;;;;5004009;28;20050;-58
2023/08/25 03:15:54;;;;;;;59.40;35.13;;;;;;;;;;5010718;28;20078;-59
2023/08/25 03:18:21;;;;;;;51.95;34.17;;;;;;;;;;5016890;28;20069;-59
2023/08/25 03:20:51;;;;;;;61.10;36.67;;;;;;;;;;5023348;28;20054;-57
2023/08/25 03:23:18;;;;;;;50.72;34.33;;;;;;;;;;5023454;28;20539;-59
2023/08/25 03:25:44;;;;;;;55.70;34.20;;;;;;;;;;5023236;28;20058;-59
2023/08/25 03:28:11;;;;;;;55.05;34.28;;;;;;;;;;5014669;28;20101;-58
2023/08/25 03:30:37;;;;;;;54.80;33.92;;;;;;;;;;5004138;28;20136;-57
2023/08/25 03:33:04;;;;;;;60.00;36.75;;;;;;;;;;5014038;28;20062;-58
2023/08/25 03:35:34;;;;;;;56.35;35.40;;;;;;;;;;5020743;28;20050;-58
2023/08/25 03:38:01;;;;;;;60.28;35.65;;;;;;;;;;5019995;28;20058;-57
2023/08/25 03:40:28;;;;;;;54.25;34.97;;;;;;;;;;5023716;28;20085;-58
2023/08/25 03:42:55;;;;;;;57.72;35.72;;;;;;;;;;5022576;28;21002;-59
2023/08/25 03:45:21;;;;;;;63.78;35.15;;;;;;;;;;5023482;28;20054;-57
2023/08/25 03:47:48;;;;;;;55.83;35.53;;;;;;;;;;5023544;28;20540;-58
2023/08/25 03:50:14;;;;;;;61.60;36.25;;;;;;;;;;5006254;28;20054;-58
2023/08/25 03:52:42;;;;;;;50.63;33.55;;;;;;;;;;5002886;28;20169;-58
2023/08/25 03:55:08;;;;;;;60.53;35.70;;;;;;;;;;5042851;28;20056;-57
2023/08/25 03:57:35;;;;;;;57.90;35.10;;;;;;;;;;5043527;28;20058;-58
2023/08/25 04:00:03;;;;;;;59.97;37.05;;;;;;;;;;5039471;28;20516;-58
2023/08/25 04:02:30;;;;;;;63.10;37.60;;;;;;;;;;5003777;28;20500;-58
2023/08/25 04:04:56;;;;;;;57.20;36.25;;;;;;;;;;5002817;28;20054;-57
2023/08/25 04:07:22;;;;;;;64.22;38.55;;;;;;;;;;5015658;28;20081;-58
2023/08/25 04:09:49;;;;;;;59.55;37.33;;;;;;;;;;5014336;28;20568;-58
2023/08/25 04:12:15;;;;;;;57.17;35.92;;;;;;;;;;5003214;28;20054;-55
2023/08/25 04:14:42;;;;;;;55.40;34.63;;;;;;;;;;5003645;28;20051;-57
2023/08/25 04:17:08;;;;;;;60.28;36.53;;;;;;;;;;5002332;28;20465;-58
2023/08/25 04:19:35;;;;;;;55.47;37.13;;;;;;;;;;5007882;28;20054;-57
2023/08/25 04:22:01;;;;;;;59.72;36.08;;;;;;;;;;5023041;28;20095;-59
2023/08/25 04:24:29;;;;;;;55.83;34.92;;;;;;;;;;5023251;28;20053;-57
2023/08/25 04:26:55;;;;;;;58.97;36.30;;;;;;;;;;5023021;28;20747;-59
2023/08/25 04:29:21;;;;;;;49.97;33.30;;;;;;;;;;5009076;28;20058;-59
2023/08/25 04:31:48;;;;;;;51.60;34.92;;;;;;;;;;5018174;28;20104;-59
2023/08/25 04:34:15;;;;;;;59.22;35.45;;;;;;;;;;5002232;28;20535;-53
2023/08/25 04:36:42;;;;;;;53.95;33.70;;;;;;;;;;5008195;28;20111;-57
2023/08/25 04:39:08;;;;;;;54.67;33.95;;;;;;;;;;5014416;28;20109;-59
2023/08/25 04:41:36;;;;;;;55.88;34.58;;;;;;;;;;5014758;28;20061;-59
2023/08/25 04:44:03;;;;;;;54.50;34.53;;;;;;;;;;5010117;28;20054;-58
2023/08/25 04:46:30;;;;;;;50.70;33.75;;;;;;;;;;5040769;28;20085;-58
2023/08/25 04:48:56;;;;;;;50.83;33.47;;;;;;;;;;5042436;28;20136;-58
2023/08/25 04:51:23;;;;;;;55.97;33.33;;;;;;;;;;5020968;28;20514;-60
2023/08/25 04:53:49;;;;;;;50.85;33.50;;;;;;;;;;5004986;28;20050;-57
2023/08/25 04:56:17;;;;;;;52.30;32.67;;;;;;;;;;5011132;28;20500;-59
2023/08/25 04:58:44;;;;;;;52.35;32.00;;;;;;;;;;5024124;28;20058;-58
2023/08/25 05:01:10;;;;;;;50.53;31.58;;;;;;;;;;5028233;28;20046;-59
2023/08/25 05:03:37;;;;;;;51.53;33.28;;;;;;;;;;5022783;28;20053;-58
2023/08/25 05:06:03;;;;;;;52.05;33.13;;;;;;;;;;5043784;28;20057;-58
2023/08/25 05:08:30;;;;;;;45.20;30.98;;;;;;;;;;5046113;28;20520;-59
2023/08/25 05:10:57;;;;;;;50.00;32.20;;;;;;;;;;5036009;28;20061;-58
2023/08/25 05:13:23;;;;;;;47.85;30.95;;;;;;;;;;5006528;28;20587;-59
2023/08/25 05:15:49;;;;;;;49.15;32.03;;;;;;;;;;5005603;28;20081;-59
2023/08/25 05:18:16;;;;;;;49.67;31.52;;;;;;;;;;5005078;28;20523;-60
2023/08/25 05:20:42;;;;;;;52.20;31.92;;;;;;;;;;5005636;28;20081;-59
2023/08/25 05:23:09;;;;;;;46.95;31.30;;;;;;;;;;5024655;28;20141;-58
2023/08/25 05:25:37;;;;;;;44.58;30.45;;;;;;;;;;5024658;28;20058;-59
2023/08/25 05:28:04;;;;;;;47.00;29.92;;;;;;;;;;5024002;28;20222;-58
2023/08/25 05:30:30;;;;;;;52.13;33.03;;;;;;;;;;5048182;28;20057;-59
2023/08/25 05:32:57;;;;;;;49.08;31.05;;;;;;;;;;5024481;28;20057;-57
2023/08/25 05:35:23;;;;;;;45.30;30.35;;;;;;;;;;5025824;28;20355;-59
2023/08/25 05:37:50;;;;;;;45.65;30.55;;;;;;;;;;5019144;28;20065;-59
2023/08/25 05:40:17;;;;;;;49.17;31.42;;;;;;;;;;5005475;28;20528;-58
2023/08/25 05:42:43;;;;;;;50.33;31.63;;;;;;;;;;5023158;28;20359;-59
2023/08/25 05:45:10;;;;;;;51.90;33.03;;;;;;;;;;5023398;28;20123;-59
2023/08/25 05:47:36;;;;;;;45.75;30.48;;;;;;;;;;5016063;28;20054;-59
2023/08/25 05:50:03;;;;;;;46.15;30.15;;;;;;;;;;5023364;28;20054;-58
2023/08/25 05:52:29;;;;;;;44.55;29.20;;;;;;;;;;5023119;28;20054;-59
2023/08/25 05:54:56;;;;;;;42.97;30.70;;;;;;;;;;5023605;28;20056;-57
2023/08/25 05:57:22;;;;;;;47.10;29.58;;;;;;;;;;5011405;28;20080;-59
2023/08/25 05:59:49;;;;;;;47.28;30.75;;;;;;;;;;5019584;28;20453;-56
2023/08/25 06:02:15;;;;;;;40.08;28.70;;;;;;;;;;5017525;28;20054;-58
2023/08/25 06:04:42;;;;;;;46.72;30.08;;;;;;;;;;5015465;28;20537;-59
2023/08/25 06:07:08;;;;;;;51.50;31.70;;;;;;;;;;5024097;28;20053;-59
2023/08/25 06:09:35;;;;;;;48.22;30.08;;;;;;;;;;5026187;28;20081;-58
2023/08/25 06:12:01;;;;;;;45.92;29.92;;;;;;;;;;5022099;28;20639;-55
2023/08/25 06:14:30;;;;;;;41.72;29.75;;;;;;;;;;5039677;28;20148;-59
2023/08/25 06:17:00;;;;;;;45.72;31.27;;;;;;;;;;5022564;28;20058;-58
2023/08/25 06:19:27;;;;;;;44.10;28.65;;;;;;;;;;5023171;28;20144;-57
2023/08/25 06:21:53;;;;;;;45.08;29.50;;;;;;;;;;5023613;28;20058;-57
2023/08/25 06:24:20;;;;;;;46.25;30.75;;;;;;;;;;5013016;28;20679;-57
2023/08/25 06:26:47;;;;;;;44.38;28.92;;;;;;;;;;5023474;28;20062;-58
2023/08/25 06:29:14;;;;;;;41.05;28.60;;;;;;;;;;5027825;28;20046;-58
2023/08/25 06:31:40;;;;;;;44.08;29.67;;;;;;;;;;5025499;28;20140;-59
2023/08/25 06:34:07;;;;;;;46.70;29.38;;;;;;;;;;5023060;28;20068;-58
2023/08/25 06:36:34;;;;;;;46.67;28.75;;;;;;;;;;5023902;28;20144;-57
2023/08/25 06:39:00;;;;;;;42.97;29.40;;;;;;;;;;5016059;28;20058;-59
2023/08/25 06:41:27;;;;;;;45.08;28.67;;;;;;;;;;5004487;28;20077;-58
2023/08/25 06:43:56;;;;;;;41.08;27.25;;;;;;;;;;5013927;28;20594;-56
2023/08/25 06:46:23;;;;;;;41.95;28.58;;;;;;;;;;5022434;28;20050;-57
2023/08/25 06:48:50;;;;;;;45.72;28.00;;;;;;;;;;5025259;28;20496;-58
2023/08/25 06:51:16;;;;;;;40.25;24.90;;;;;;;;;;5043449;28;20513;-58
2023/08/25 06:53:43;;;;;;;38.63;26.33;;;;;;;;;;5025932;28;20049;-57
2023/08/25 06:56:10;;;;;;;45.17;26.73;;;;;;;;;;5023239;28;20141;-57
2023/08/25 06:58:36;;;;;;;39.72;25.52;;;;;;;;;;5022872;28;20050;-58
2023/08/25 07:01:04;;;;;;;43.25;25.20;;;;;;;;;;5006139;28;20529;-58
2023/08/25 07:03:30;;;;;;;43.85;28.35;;;;;;;;;;5015697;28;20056;-57
2023/08/25 07:05:59;;;;;;;43.80;26.10;;;;;;;;;;5014649;28;20612;-57
2023/08/25 07:08:25;;;;;;;40.53;26.27;;;;;;;;;;5018214;28;20454;-59
2023/08/25 07:10:52;;;;;;;45.35;27.40;;;;;;;;;;5007403;28;20432;-56
2023/08/25 07:13:19;;;;;;;43.17;26.88;;;;;;;;;;5020079;28;20652;-57
2023/08/25 07:15:45;;;;;;;47.88;27.23;;;;;;;;;;5019251;28;20065;-58
2023/08/25 07:18:12;;;;;;;42.03;26.48;;;;;;;;;;5021792;28;20049;-58
2023/08/25 07:20:38;;;;;;;36.70;24.90;;;;;;;;;;5022701;28;20132;-58
2023/08/25 07:23:05;;;;;;;41.90;24.80;;;;;;;;;;5023328;28;20530;-58
2023/08/25 07:25:32;;;;;;;38.58;25.00;;;;;;;;;;5002696;28;20112;-55
2023/08/25 07:27:58;;;;;;;38.70;23.73;;;;;;;;;;5009309;28;20104;-59
2023/08/25 07:30:25;;;;;;;38.17;25.80;;;;;;;;;;5042273;28;20053;-58
2023/08/25 07:32:51;;;;;;;42.70;26.30;;;;;;;;;;5039092;28;20609;-59
2023/08/25 07:35:18;;;;;;;42.17;27.48;;;;;;;;;;5021941;28;20973;-58
2023/08/25 07:37:44;;;;;;;40.03;26.45;;;;;;;;;;5022616;28;20144;-59
2023/08/25 07:40:10;;;;;;;39.40;26.10;;;;;;;;;;5016186;28;20497;-59
2023/08/25 07:42:37;;;;;;;40.00;25.67;;;;;;;;;;5002028;28;20050;-59
2023/08/25 07:45:04;;;;;;;35.58;23.55;;;;;;;;;;5035103;28;20444;-57
2023/08/25 07:47:31;;;;;;;40.45;27.23;;;;;;;;;;5008939;28;20149;-59
2023/08/25 07:49:58;;;;;;;37.53;24.60;;;;;;;;;;5037157;28;20080;-59
2023/08/25 07:52:25;;;;;;;39.05;26.10;;;;;;;;;;5038740;28;20054;-59
2023/08/25 07:54:51;;;;;;;40.55;24.23;;;;;;;;;;5008387;28;20124;-60
2023/08/25 07:57:18;;;;;;;36.95;22.92;;;;;;;;;;5013248;28;20526;-59
2023/08/25 07:59:44;;;;;;;36.67;23.35;;;;;;;;;;5026120;28;20046;-59
2023/08/25 08:02:12;;;;;;;34.42;23.15;;;;;;;;;;5022155;28;20076;-59
2023/08/25 08:04:38;;;;;;;33.45;22.05;;;;;;;;;;5030820;28;20128;-58
2023/08/25 08:07:05;;;;;;;32.85;22.67;;;;;;;;;;5017994;28;20544;-57
2023/08/25 08:09:32;;;;;;;37.88;24.40;;;;;;;;;;5023596;28;20053;-58
2023/08/25 08:11:59;;;;;;;38.65;24.52;;;;;;;;;;5022445;28;20500;-58
2023/08/25 08:14:25;;;;;;;33.88;22.08;;;;;;;;;;5020688;28;20483;-59
2023/08/25 08:17:10;;;;;;;33.00;21.88;;;;;;;;;;5021693;28;20046;-58
2023/08/25 08:19:37;;;;;;;27.83;20.90;;;;;;;;;;5021819;28;20070;-57
2023/08/25 08:22:03;;;;;;;36.15;23.67;;;;;;;;;;5034652;28;20080;-58
2023/08/25 08:24:30;;;;;;;35.35;22.50;;;;;;;;;;5026053;28;20563;-55
2023/08/25 08:27:16;;;;;;;33.60;21.88;;;;;;;;;;5020618;28;20203;-58
2023/08/25 08:29:42;;;;;;;29.17;21.13;;;;;;;;;;5021947;28;20065;-59
2023/08/25 08:32:09;;;;;;;33.22;21.60;;;;;;;;;;5013518;28;20133;-58
2023/08/25 08:34:35;;;;;;;35.42;20.65;;;;;;;;;;5020573;28;20136;-57
2023/08/25 08:37:05;;;;;;;29.88;19.88;;;;;;;;;;5031442;28;20137;-58
2023/08/25 08:39:32;;;;;;;35.33;22.52;;;;;;;;;;5022645;28;20571;-57
2023/08/25 08:42:02;;;;;;;32.40;23.17;;;;;;;;;;5012811;28;20058;-59
2023/08/25 08:44:29;;;;;;;36.80;24.08;;;;;;;;;;5033006;28;20467;-57
2023/08/25 08:46:56;;;;;;;30.45;20.90;;;;;;;;;;5021645;28;20054;-57
2023/08/25 08:49:24;;;;;;;38.20;23.00;;;;;;;;;;5020917;28;20054;-58
2023/08/25 08:51:51;;;;;;;31.85;21.88;;;;;;;;;;5003867;28;20521;-58
2023/08/25 08:54:19;;;;;;;29.83;21.10;;;;;;;;;;5011841;28;20060;-58
2023/08/25 08:56:46;;;;;;;30.88;23.02;;;;;;;;;;5020967;28;20436;-59
2023/08/25 08:59:12;;;;;;;35.40;23.90;;;;;;;;;;5027680;28;20062;-59
2023/08/25 09:01:39;;;;;;;28.73;20.80;;;;;;;;;;5020106;28;20531;-58
2023/08/25 09:04:07;;;;;;;33.67;24.20;;;;;;;;;;5021375;28;20540;-58
2023/08/25 09:06:37;;;;;;;38.80;24.45;;;;;;;;;;5024684;28;20061;-56
2023/08/25 09:09:05;;;;;;;39.92;26.42;;;;;;;;;;5021722;28;20054;-58
2023/08/25 09:11:32;;;;;;;37.45;26.63;;;;;;;;;;5024931;28;20093;-59
2023/08/25 09:14:04;;;;;;;34.63;22.90;;;;;;;;;;5030480;28;20090;-59
2023/08/25 09:16:33;;;;;;;43.58;29.02;;;;;;;;;;5024806;28;20045;-58
2023/08/25 09:19:01;;;;;;;42.47;28.10;;;;;;;;;;5014614;28;20161;-58
2023/08/25 09:21:28;;;;;;;41.97;27.85;;;;;;;;;;5002574;28;20144;-58
2023/08/25 09:24:02;;;;;;;42.42;27.27;;;;;;;;;;5013664;28;20058;-59
2023/08/25 09:26:29;;;;;;;40.47;27.95;;;;;;;;;;5025567;28;20060;-59
2023/08/25 09:28:57;;;;;;;41.75;28.02;;;;;;;;;;5021620;28;20049;-57
2023/08/25 09:31:24;;;;;;;40.67;27.05;;;;;;;;;;5021437;28;20076;-59
2023/08/25 09:33:53;;;;;;;46.33;29.23;;;;;;;;;;5020756;28;20053;-59
2023/08/25 09:36:20;;;;;;;45.97;28.17;;;;;;;;;;5000761;28;20065;-59
2023/08/25 09:38:47;;;;;;;41.28;27.58;;;;;;;;;;5005535;28;20109;-57
2023/08/25 09:41:28;;;;;;;42.55;27.40;;;;;;;;;;5008683;28;20057;-58
2023/08/25 09:43:58;;;;;;;41.70;28.05;;;;;;;;;;5020313;28;20131;-57
2023/08/25 09:46:28;;;;;;;42.95;27.70;;;;;;;;;;5027583;28;20200;-57
2023/08/25 09:49:02;;;;;;;45.55;29.33;;;;;;;;;;5040690;28;20588;-57
2023/08/25 09:51:34;;;;;;;46.47;30.08;;;;;;;;;;5007601;28;20482;-59
2023/08/25 09:54:05;;;;;;;43.78;28.65;;;;;;;;;;5020528;28;20064;-58
2023/08/25 09:56:33;;;;;;;44.05;28.60;;;;;;;;;;5030788;28;20532;-58
2023/08/25 09:59:02;;;;;;;47.50;29.80;;;;;;;;;;5024552;28;20054;-57
2023/08/25 10:01:29;;;;;;;48.97;31.02;;;;;;;;;;5021727;28;20139;-59
2023/08/25 10:03:57;;;;;;;45.50;27.40;;;;;;;;;;5023483;28;20050;-58
2023/08/25 10:06:24;;;;;;;45.30;27.90;;;;;;;;;;5024516;28;20058;-59
2023/08/25 10:08:50;;;;;;;47.22;29.65;;;;;;;;;;5023397;28;20061;-58
2023/08/25 10:11:18;;;;;;;44.05;27.83;;;;;;;;;;5035818;28;20896;-59
2023/08/25 10:13:45;;;;;;;45.30;29.10;;;;;;;;;;5010795;28;20058;-60
2023/08/25 10:16:12;;;;;;;38.85;26.70;;;;;;;;;;5017733;28;20136;-59
2023/08/25 10:18:43;;;;;;;41.40;27.13;;;;;;;;;;5022823;28;20126;-58
2023/08/25 10:21:10;;;;;;;33.70;23.73;;;;;;;;;;5023186;28;20054;-59
2023/08/25 10:23:37;;;;;;;43.70;28.80;;;;;;;;;;5038299;28;20069;-59
2023/08/25 10:26:05;;;;;;;36.97;25.60;;;;;;;;;;5025336;28;20049;-58
2023/08/25 10:28:33;;;;;;;42.10;26.30;;;;;;;;;;5023476;28;20061;-59
2023/08/25 10:30:59;;;;;;;38.20;26.90;;;;;;;;;;5017395;28;20053;-59
2023/08/25 10:33:25;;;;;;;41.90;27.10;;;;;;;;;;5012555;28;20527;-59
2023/08/25 10:35:53;;;;;;;38.38;26.85;;;;;;;;;;5020756;28;20108;-59
2023/08/25 10:38:20;;;;;;;30.92;22.55;;;;;;;;;;5022061;28;20056;-58
2023/08/25 10:40:53;;;;;;;30.38;19.30;;;;;;;;;;5023763;28;20197;-59
2023/08/25 10:43:28;;;;;;;26.73;18.95;;;;;;;;;;5031492;28;20138;-59
2023/08/25 10:46:02;;;;;;;29.35;19.98;;;;;;;;;;5025678;28;20081;-60
2023/08/25 10:48:28;;;;;;;28.85;20.02;;;;;;;;;;5024082;28;20058;-59
2023/08/25 10:51:15;;;;;;;27.63;18.63;;;;;;;;;;5022959;28;20089;-59
2023/08/25 10:53:46;;;;;;;23.25;17.20;;;;;;;;;;5023767;28;20516;-57
2023/08/25 10:56:14;;;;;;;19.50;13.88;;;;;;;;;;5022591;28;20057;-58
2023/08/25 10:58:41;;;;;;;13.73;10.20;;;;;;;;;;5014935;28;20153;-60
2023/08/25 11:01:08;;;;;;;11.10;9.57;;;;;;;;;;5019423;28;20539;-60
2023/08/25 11:03:48;;;;;;;11.52;8.50;;;;;;;;;;5019043;28;20596;-60
2023/08/25 11:06:33;;;;;;;9.95;7.82;;;;;;;;;;5017276;28;20138;-60
2023/08/25 11:08:59;;;;;;;11.00;8.65;;;;;;;;;;5003637;28;20543;-59
2023/08/25 11:11:27;;;;;;;8.55;6.93;;;;;;;;;;5027371;28;20529;-61
2023/08/25 11:13:56;;;;;;;11.20;8.52;;;;;;;;;;5019360;28;20050;-60
2023/08/25 11:16:22;;;;;;;12.98;9.23;;;;;;;;;;5036359;28;20053;-61
2023/08/25 11:18:49;;;;;;;10.23;7.65;;;;;;;;;;5023245;28;20141;-60
2023/08/25 11:21:15;;;;;;;8.80;6.90;;;;;;;;;;5022698;28;20590;-59
2023/08/25 11:23:42;;;;;;;9.38;6.78;;;;;;;;;;5023838;28;20133;-59
2023/08/25 11:26:09;;;;;;;11.27;7.55;;;;;;;;;;5030530;28;20061;-59
2023/08/25 11:28:36;;;;;;;9.25;7.40;;;;;;;;;;5041161;28;20508;-58
2023/08/25 11:31:03;;;;;;;8.68;7.32;;;;;;;;;;5027606;28;20518;-59
2023/08/25 11:33:31;;;;;;;9.02;7.43;;;;;;;;;;5022947;28;20054;-57
2023/08/25 11:35:58;;;;;;;10.65;7.78;;;;;;;;;;5020402;28;20834;-58
2023/08/25 11:38:25;;;;;;;13.18;9.75;;;;;;;;;;5016149;28;20886;-60
2023/08/25 11:40:53;;;;;;;14.23;10.48;;;;;;;;;;5028181;28;20567;-59
2023/08/25 11:43:20;;;;;;;12.88;10.57;;;;;;;;;;5022902;28;20054;-60
2023/08/25 11:45:46;;;;;;;15.13;12.00;;;;;;;;;;5023033;28;20065;-60
2023/08/25 11:48:13;;;;;;;14.95;12.00;;;;;;;;;;5018751;28;20058;-60
2023/08/25 11:50:40;;;;;;;14.50;12.38;;;;;;;;;;5022184;28;20053;-59
2023/08/25 11:53:07;;;;;;;16.30;13.02;;;;;;;;;;5017817;28;20050;-60
2023/08/25 11:55:34;;;;;;;21.63;14.82;;;;;;;;;;5021861;28;20100;-57
2023/08/25 11:58:07;;;;;;;17.10;13.23;;;;;;;;;;5026585;28;20053;-59
2023/08/25 12:00:37;;;;;;;20.33;14.45;;;;;;;;;;5031867;28;20545;-58
2023/08/25 12:03:05;;;;;;;21.30;15.45;;;;;;;;;;5022432;28;20057;-58
2023/08/25 12:05:36;;;;;;;21.70;16.42;;;;;;;;;;5011060;28;20058;-60
2023/08/25 12:08:03;;;;;;;21.83;15.52;;;;;;;;;;5004657;28;20046;-59
2023/08/25 12:10:35;;;;;;;23.15;16.70;;;;;;;;;;5012418;28;20590;-60
2023/08/25 12:13:02;;;;;;;24.42;17.67;;;;;;;;;;5019995;28;20579;-59
2023/08/25 12:15:38;;;;;;;24.48;17.52;;;;;;;;;;5017114;28;20053;-60
2023/08/25 12:18:04;;;;;;;24.42;18.65;;;;;;;;;;5042174;28;20053;-55
2023/08/25 12:20:31;;;;;;;27.13;19.55;;;;;;;;;;5024257;28;20081;-57
2023/08/25 12:23:00;;;;;;;26.02;19.42;;;;;;;;;;5022206;28;20077;-60
2023/08/25 12:25:27;;;;;;;26.58;19.63;;;;;;;;;;5028703;28;20632;-60
2023/08/25 12:27:54;;;;;;;24.08;18.35;;;;;;;;;;5014523;28;20068;-59
2023/08/25 12:30:21;;;;;;;25.75;19.00;;;;;;;;;;5025068;28;20519;-60
2023/08/25 12:32:48;;;;;;;27.27;20.30;;;;;;;;;;5025941;28;20123;-60
2023/08/25 12:35:14;;;;;;;28.92;19.70;;;;;;;;;;5033889;28;20054;-60
2023/08/25 12:37:40;;;;;;;26.10;18.88;;;;;;;;;;5005689;28;20066;-59
2023/08/25 12:40:07;;;;;;;26.60;19.00;;;;;;;;;;5021399;28;20140;-56
2023/08/25 12:42:33;;;;;;;26.25;19.42;;;;;;;;;;5017920;28;20175;-57
2023/08/25 12:45:00;;;;;;;22.98;17.98;;;;;;;;;;5004874;28;20082;-57
2023/08/25 12:47:26;;;;;;;23.15;18.75;;;;;;;;;;5026714;28;20054;-58
2023/08/25 12:49:53;;;;;;;25.23;18.27;;;;;;;;;;5032209;28;20500;-58
2023/08/25 12:52:19;;;;;;;24.40;18.95;;;;;;;;;;5022071;28;20148;-59
2023/08/25 12:54:46;;;;;;;24.90;18.35;;;;;;;;;;5021606;28;20494;-58
2023/08/25 12:57:12;;;;;;;25.52;18.40;;;;;;;;;;5002389;28;20073;-59
2023/08/25 12:59:41;;;;;;;24.75;18.25;;;;;;;;;;5002204;28;20082;-59
2023/08/25 13:02:08;;;;;;;20.08;16.25;;;;;;;;;;5025352;28;20123;-58
2023/08/25 13:04:34;;;;;;;20.45;15.85;;;;;;;;;;5041726;28;20173;-58
2023/08/25 13:07:01;;;;;;;20.17;15.32;;;;;;;;;;5021441;28;20179;-58
2023/08/25 13:09:28;;;;;;;21.90;16.30;;;;;;;;;;5014902;28;20064;-58
2023/08/25 13:11:54;;;;;;;19.83;16.10;;;;;;;;;;5017452;28;20054;-57
2023/08/25 13:14:22;;;;;;;25.00;16.00;;;;;;;;;;5020607;28;20104;-59
2023/08/25 13:16:48;;;;;;;22.90;16.58;;;;;;;;;;5023435;28;20054;-58
2023/08/25 13:19:15;;;;;;;25.45;17.50;;;;;;;;;;5023641;28;20182;-58
2023/08/25 13:21:43;;;;;;;24.25;18.25;;;;;;;;;;5024385;28;20054;-59
2023/08/25 13:24:10;;;;;;;24.23;18.35;;;;;;;;;;5021262;28;20519;-59
2023/08/25 13:26:36;;;;;;;26.40;18.23;;;;;;;;;;5019929;28;20497;-59
2023/08/25 13:29:03;;;;;;;25.08;18.63;;;;;;;;;;5026338;28;20058;-57
2023/08/25 13:31:30;;;;;;;21.33;17.67;;;;;;;;;;5017078;28;20061;-58
2023/08/25 13:33:57;;;;;;;22.52;17.15;;;;;;;;;;5023244;28;20065;-57
2023/08/25 13:36:24;;;;;;;24.83;18.85;;;;;;;;;;5024980;28;20061;-58
2023/08/25 13:38:50;;;;;;;25.30;19.42;;;;;;;;;;5020508;28;20563;-59
2023/08/25 13:41:16;;;;;;;25.05;20.30;;;;;;;;;;5022538;28;20054;-59
2023/08/25 13:43:43;;;;;;;27.70;22.52;;;;;;;;;;5029808;28;20076;-57
2023/08/25 13:46:09;;;;;;;31.35;20.85;;;;;;;;;;5032388;28;20054;-58
2023/08/25 13:48:36;;;;;;;26.33;20.92;;;;;;;;;;5039588;28;20440;-58
2023/08/25 13:51:03;;;;;;;29.08;21.05;;;;;;;;;;5009614;28;20066;-56
2023/08/25 13:53:30;;;;;;;28.92;22.30;;;;;;;;;;5005441;28;20081;-57
2023/08/25 13:55:56;;;;;;;28.45;23.05;;;;;;;;;;5005377;28;20058;-58
2023/08/25 13:58:23;;;;;;;32.10;24.08;;;;;;;;;;5024128;28;20054;-57
2023/08/25 14:00:50;;;;;;;32.97;24.50;;;;;;;;;;5030345;28;20089;-58
2023/08/25 14:03:17;;;;;;;30.50;23.45;;;;;;;;;;5021512;28;20054;-57
2023/08/25 14:05:43;;;;;;;41.17;26.75;;;;;;;;;;5032892;28;20192;-59
2023/08/25 14:08:10;;;;;;;38.00;27.73;;;;;;;;;;5044150;28;20156;-58
2023/08/25 14:10:36;;;;;;;46.90;30.10;;;;;;;;;;5044472;28;20053;-58
2023/08/25 14:13:03;;;;;;;42.75;28.83;;;;;;;;;;5044772;28;20053;-57
2023/08/25 14:15:30;;;;;;;41.50;28.40;;;;;;;;;;5042650;28;20144;-58
2023/08/25 14:17:56;;;;;;;49.92;29.45;;;;;;;;;;5010992;28;20150;-59
2023/08/25 14:20:23;;;;;;;39.15;27.13;;;;;;;;;;5005051;28;20089;-59